Hrossey — VSTY6 — position and weather

sailwx.info

Track history (hours):
 
Tides and Currents Weather Stations Pressure Air Temp Water Temp Dewpoint Dewpoint Depression Visibility Wind Speed Wind Dir Waves Ship Positions

Hrossey

Operator: NorthLink Orkey & Shetland Ferries Ltd

Last reported at 2019-Sep-21 10:28 UTC. Time now 2019-Sep-21 10:59 UTC.
Position N 57°09' W 002°05'.

Length 125 m; draft 5.4 m.

Type: Ship. MMSI: 235448000.

Date/timePositionNaut miles runAvg speedWind from/ knotsBaromVisibWave heightAir tempDewpointWater temp
2019-Sep-21 10:28N 57°09' W 002°05'0 0.0
2019-Sep-21 09:58N 57°09' W 002°05'0 0.0
2019-Sep-21 09:28N 57°09' W 002°05'0 0.0
2019-Sep-21 08:58N 57°09' W 002°05'0 0.0
2019-Sep-21 08:28N 57°09' W 002°05'0 0.0
2019-Sep-21 07:58N 57°09' W 002°05'0 0.0
2019-Sep-21 07:28N 57°09' W 002°05'0 0.0
2019-Sep-21 07:01N 57°09' W 002°05'0 0.0
2019-Sep-21 06:31N 57°09' W 002°05'0 0.0
2019-Sep-21 06:00N 57°09' W 002°05'1 1.1
2019-Sep-21 05:31N 57°09' W 002°04'713.2
2019-Sep-21 05:00N 57°13' W 001°56'5618.1
2019-Sep-21 01:54N 58°10' W 002°04'920.9
2019-Sep-21 01:29N 58°17' W 002°10'1021.2
2019-Sep-21 01:00N 58°27' W 002°16'1020.9
2019-Sep-21 00:30N 58°37' W 002°23'1121.0
2019-Sep-21 00:00N 58°46' W 002°31'1021.0
2019-Sep-20 23:30N 58°56' W 002°38'1020.4
2019-Sep-20 23:00N 59°01' W 002°55'2 3.9
2019-Sep-20 22:30N 58°60' W 002°58'0 0.0
2019-Sep-20 21:51N 58°60' W 002°58'0 0.0
2019-Sep-20 21:30N 58°60' W 002°58'4 9.0
2019-Sep-20 21:00N 59°01' W 002°50'917.7
2019-Sep-20 20:29N 59°01' W 002°32'816.7
2019-Sep-20 20:00N 59°06' W 002°21'1019.6
2019-Sep-20 19:30N 59°13' W 002°06'1021.0
2019-Sep-20 19:00N 59°21' W 001°52'1121.0
2019-Sep-20 18:30N 59°29' W 001°38'1021.0
2019-Sep-20 18:00N 59°38' W 001°29'1121.6
2019-Sep-20 17:30N 59°47' W 001°18'1122.0
2019-Sep-20 16:59N 59°57' W 001°09'1021.2
2019-Sep-20 16:30N 60°08' W 001°08'62 4.1
2019-Sep-20 01:12N 59°14' W 002°11'1112.5
2019-Sep-20 00:20N 59°06' W 002°24'412.9
2019-Sep-20 00:00N 59°02' W 002°30'612.4
2019-Sep-19 23:30N 59°00' W 002°41'816.8
2019-Sep-19 23:00N 59°01' W 002°57'1 1.3
2019-Sep-19 22:13N 58°60' W 002°58'0 0.0
2019-Sep-19 21:58N 58°60' W 002°58'4 7.7
2019-Sep-19 21:30N 59°01' W 002°52'1020.7
2019-Sep-19 21:00N 58°55' W 002°35'6623.8
2019-Sep-19 18:14N 57°53' W 001°52'523.5
2019-Sep-19 18:01N 57°48' W 001°49'1223.0
2019-Sep-19 17:30N 57°37' W 001°41'1121.4
2019-Sep-19 17:01N 57°27' W 001°42'1122.1
2019-Sep-19 16:30N 57°17' W 001°54'1020.8
2019-Sep-19 16:01N 57°09' W 002°04'1 1.7
2019-Sep-19 15:29N 57°09' W 002°05'0 0.0
2019-Sep-19 14:59N 57°09' W 002°05'0 0.0
2019-Sep-19 14:29N 57°09' W 002°05'0 0.0
2019-Sep-19 13:59N 57°09' W 002°05'0 0.0
2019-Sep-19 13:29N 57°09' W 002°05'0 0.0
2019-Sep-19 12:59N 57°09' W 002°05'0 0.0
2019-Sep-19 12:29N 57°09' W 002°05'0 0.0
2019-Sep-19 12:00N 57°09' W 002°05'0 0.0
2019-Sep-19 11:30N 57°09' W 002°05'0 0.0
2019-Sep-19 11:00N 57°09' W 002°05'0 0.0
2019-Sep-19 10:30N 57°09' W 002°05'0 0.0
2019-Sep-19 10:00N 57°09' W 002°05'0 0.0
2019-Sep-19 09:30N 57°09' W 002°05'0 0.0
2019-Sep-19 09:00N 57°09' W 002°05'0 0.0
2019-Sep-19 08:30N 57°09' W 002°05'0 0.0
2019-Sep-19 08:00N 57°09' W 002°05'0 0.0
2019-Sep-19 07:30N 57°09' W 002°05'0 0.0
2019-Sep-19 07:00N 57°09' W 002°05'0 0.0
2019-Sep-19 06:30N 57°09' W 002°05'0 0.0
2019-Sep-19 06:00N 57°09' W 002°05'1 1.2
2019-Sep-19 05:30N 57°09' W 002°04'714.1
2019-Sep-19 05:00N 57°14' W 001°55'816.0
2019-Sep-19 04:30N 57°20' W 001°47'816.4
2019-Sep-19 04:00N 57°27' W 001°40'816.9
2019-Sep-19 03:30N 57°36' W 001°39'1020.1
2019-Sep-19 03:00N 57°46' W 001°44'5621.6
2019-Sep-19 00:24N 58°37' W 002°26'1121.5
2019-Sep-18 23:53N 58°48' W 002°32'921.6
2019-Sep-18 23:27N 58°56' W 002°39'920.0
2019-Sep-18 23:01N 59°01' W 002°54'3 3.6
2019-Sep-18 22:18N 58°60' W 002°58'0 0.0
2019-Sep-18 21:17N 58°60' W 002°58'2 7.9
2019-Sep-18 21:00N 59°01' W 002°55'14 0.7
2019-Sep-18 00:28N 59°04' W 002°28'612.0
2019-Sep-17 23:59N 59°00' W 002°37'714.1
2019-Sep-17 23:30N 59°01' W 002°50'4 3.8
2019-Sep-17 22:21N 58°60' W 002°58'0 0.0
2019-Sep-17 22:00N 58°60' W 002°58'611.1
2019-Sep-17 21:30N 59°00' W 002°48'1019.3
2019-Sep-17 21:00N 58°54' W 002°34'6623.6
2019-Sep-17 18:11N 57°51' W 001°50'423.6
2019-Sep-17 18:01N 57°47' W 001°47'1223.6
2019-Sep-17 17:31N 57°36' W 001°42'1223.2
2019-Sep-17 17:01N 57°24' W 001°44'1223.1
2019-Sep-17 16:30N 57°15' W 001°55'815.9
2019-Sep-17 16:00N 57°09' W 002°05'0 0.8
2019-Sep-17 15:29N 57°09' W 002°05'0 0.0
2019-Sep-17 14:59N 57°09' W 002°05'0 0.0
2019-Sep-17 14:29N 57°09' W 002°05'0 0.0
2019-Sep-17 13:59N 57°09' W 002°05'0 0.0
2019-Sep-17 13:29N 57°09' W 002°05'0 0.0
2019-Sep-17 12:59N 57°09' W 002°05'0 0.0
2019-Sep-17 12:29N 57°09' W 002°05'0 0.0
2019-Sep-17 11:59N 57°09' W 002°05'0 0.0
2019-Sep-17 11:29N 57°09' W 002°05'0 0.0
2019-Sep-17 10:59N 57°09' W 002°05'0 0.0
2019-Sep-17 10:29N 57°09' W 002°05'0 0.0
2019-Sep-17 09:59N 57°09' W 002°05'0 0.0
2019-Sep-17 09:29N 57°09' W 002°05'0 0.0
2019-Sep-17 08:59N 57°09' W 002°05'0 0.0
2019-Sep-17 08:29N 57°09' W 002°05'0 0.0
2019-Sep-17 07:59N 57°09' W 002°05'0 0.0
2019-Sep-17 07:29N 57°09' W 002°05'0 0.0
2019-Sep-17 06:59N 57°09' W 002°05'0 0.0
2019-Sep-17 06:29N 57°09' W 002°05'0 0.0
2019-Sep-17 06:00N 57°09' W 002°05'1 1.5
2019-Sep-17 05:30N 57°09' W 002°04'714.9
2019-Sep-17 05:01N 57°14' W 001°55'816.7
2019-Sep-17 04:31N 57°21' W 001°46'816.5
2019-Sep-17 04:00N 57°28' W 001°37'816.1
2019-Sep-17 03:31N 57°36' W 001°37'918.5
2019-Sep-17 03:00N 57°45' W 001°40'6421.5
2019-Sep-17 00:01N 58°44' W 002°28'221.4
2019-Sep-16 23:55N 58°46' W 002°30'922.1
2019-Sep-16 23:30N 58°54' W 002°36'1020.0
2019-Sep-16 23:00N 59°01' W 002°51'4 4.6
2019-Sep-16 22:13N 58°60' W 002°58'0 0.2
2019-Sep-16 22:00N 58°60' W 002°58'713.3
2019-Sep-16 21:30N 59°01' W 002°45'12 0.6
2019-Sep-16 00:33N 59°07' W 002°25'210.9
2019-Sep-16 00:21N 59°05' W 002°27'410.9
2019-Sep-16 00:00N 59°02' W 002°30'510.9
2019-Sep-15 23:31N 59°00' W 002°40'713.2
2019-Sep-15 23:00N 59°01' W 002°53'3 5.2
2019-Sep-15 22:28N 58°60' W 002°58'0 0.0
2019-Sep-15 21:58N 58°60' W 002°58'3 6.1
2019-Sep-15 21:30N 59°01' W 002°53'1019.4
2019-Sep-15 21:00N 58°56' W 002°36'7023.1
2019-Sep-15 17:58N 57°50' W 001°51'1124.3
2019-Sep-15 17:31N 57°40' W 001°44'1224.5
2019-Sep-15 17:01N 57°28' W 001°42'1224.1
2019-Sep-15 16:31N 57°17' W 001°52'1020.9
2019-Sep-15 16:00N 57°09' W 002°04'1 1.7
2019-Sep-15 15:30N 57°09' W 002°05'0 0.0
2019-Sep-15 15:00N 57°09' W 002°05'0 0.0
2019-Sep-15 14:30N 57°09' W 002°05'0 0.0
2019-Sep-15 14:00N 57°09' W 002°05'0 0.0
2019-Sep-15 13:30N 57°09' W 002°05'0 0.0
2019-Sep-15 13:00N 57°09' W 002°05'0 0.0
2019-Sep-15 12:30N 57°09' W 002°05'0 0.0
2019-Sep-15 12:00N 57°09' W 002°05'0 0.0
2019-Sep-15 11:30N 57°09' W 002°05'0 0.0
2019-Sep-15 11:00N 57°09' W 002°05'0 0.0
2019-Sep-15 10:30N 57°09' W 002°05'0 0.0
2019-Sep-15 10:00N 57°09' W 002°05'0 0.0
2019-Sep-15 09:30N 57°09' W 002°05'0 0.0
2019-Sep-15 09:00N 57°09' W 002°05'0 0.0
2019-Sep-15 08:29N 57°09' W 002°05'0 0.0
2019-Sep-15 07:59N 57°09' W 002°05'0 0.0
2019-Sep-15 07:29N 57°09' W 002°05'0 0.0
2019-Sep-15 06:59N 57°09' W 002°05'0 0.0
2019-Sep-15 06:28N 57°09' W 002°05'0 0.0
2019-Sep-15 06:00N 57°09' W 002°05'1 1.5
2019-Sep-15 05:30N 57°09' W 002°04'714.9
2019-Sep-15 05:00N 57°14' W 001°55'714.1
2019-Sep-15 04:30N 57°19' W 001°46'611.4
2019-Sep-15 04:00N 57°24' W 001°40'611.8
2019-Sep-15 03:30N 57°29' W 001°36'612.5
2019-Sep-15 03:00N 57°36' W 001°36'612.5
2019-Sep-15 02:30N 57°42' W 001°37'713.0
2019-Sep-15 02:00N 57°48' W 001°38'4 0.1
2019-Sep-13 21:34N 57°51' W 001°34'113.0
2019-Sep-13 21:30N 57°51' W 001°34'713.1
2019-Sep-13 21:00N 57°44' W 001°34'713.6
2019-Sep-13 20:31N 57°37' W 001°34'713.8
2019-Sep-13 20:01N 57°30' W 001°35'714.0
2019-Sep-13 19:31N 57°24' W 001°42'714.3
2019-Sep-13 19:00N 57°18' W 001°49'714.3
2019-Sep-13 18:30N 57°13' W 001°57'611.8
2019-Sep-13 18:00N 57°09' W 002°05'1 1.0
2019-Sep-13 17:28N 57°09' W 002°05'0 0.0
2019-Sep-13 16:58N 57°09' W 002°05'0 0.0
2019-Sep-13 16:28N 57°09' W 002°05'0 0.0
2019-Sep-13 15:58N 57°09' W 002°05'0 0.0
2019-Sep-13 15:28N 57°09' W 002°05'0 0.0
2019-Sep-13 14:58N 57°09' W 002°05'0 0.0
2019-Sep-13 14:28N 57°09' W 002°05'0 0.0
2019-Sep-13 13:58N 57°09' W 002°05'0 0.0
2019-Sep-13 13:28N 57°09' W 002°05'0 0.0
2019-Sep-13 12:58N 57°09' W 002°05'0 0.0
2019-Sep-13 12:28N 57°09' W 002°05'0 0.0
2019-Sep-13 11:58N 57°09' W 002°05'0 0.0
2019-Sep-13 11:29N 57°09' W 002°05'0 0.0
2019-Sep-13 10:58N 57°09' W 002°05'0 0.0
2019-Sep-13 10:28N 57°09' W 002°05'0 0.0
2019-Sep-13 09:59N 57°09' W 002°05'0 0.0
2019-Sep-13 09:28N 57°09' W 002°05'0 0.0
2019-Sep-13 08:58N 57°09' W 002°05'0 0.0
2019-Sep-13 08:29N 57°09' W 002°05'0 0.0
2019-Sep-13 07:58N 57°09' W 002°05'0 0.0
2019-Sep-13 07:28N 57°09' W 002°05'0 0.0
2019-Sep-13 06:58N 57°09' W 002°05'0 0.0
2019-Sep-13 06:28N 57°09' W 002°05'0 0.0
2019-Sep-13 06:00N 57°09' W 002°05'1 1.6
2019-Sep-13 05:30N 57°09' W 002°04'613.0
2019-Sep-13 05:00N 57°13' W 001°56'815.5
2019-Sep-13 04:30N 57°20' W 001°47'714.8
2019-Sep-13 04:00N 57°26' W 001°41'611.8
2019-Sep-13 03:30N 57°32' W 001°38'713.3
2019-Sep-13 03:00N 57°39' W 001°39'713.2
2019-Sep-13 02:29N 57°45' W 001°39'5 0.2
2019-Sep-11 21:05N 57°47' W 001°30'212.7
2019-Sep-11 20:58N 57°46' W 001°30'613.3
2019-Sep-11 20:30N 57°40' W 001°33'713.6
2019-Sep-11 20:00N 57°33' W 001°35'713.6
2019-Sep-11 19:30N 57°26' W 001°38'713.9
2019-Sep-11 19:00N 57°21' W 001°46'714.7
2019-Sep-11 18:30N 57°15' W 001°54'816.4
2019-Sep-11 18:01N 57°09' W 002°04'1 1.8
2019-Sep-11 17:30N 57°09' W 002°05'0 0.0
2019-Sep-11 17:00N 57°09' W 002°05'0 0.0
2019-Sep-11 16:30N 57°09' W 002°05'0 0.0
2019-Sep-11 16:00N 57°09' W 002°05'0 0.0
2019-Sep-11 15:30N 57°09' W 002°05'0 0.0
2019-Sep-11 15:00N 57°09' W 002°05'0 0.0
2019-Sep-11 14:30N 57°09' W 002°05'0 0.0
2019-Sep-11 14:00N 57°09' W 002°05'0 0.0
2019-Sep-11 13:30N 57°09' W 002°05'0 0.0
2019-Sep-11 13:00N 57°09' W 002°05'0 0.0
2019-Sep-11 12:30N 57°09' W 002°05'0 0.0
2019-Sep-11 12:00N 57°09' W 002°05'0 0.0
2019-Sep-11 11:30N 57°09' W 002°05'0 0.0
2019-Sep-11 11:00N 57°09' W 002°05'0 0.0
2019-Sep-11 10:30N 57°09' W 002°05'  
Track history (hours):
 
Tides and Currents Weather Stations Pressure Air Temp Water Temp Dewpoint Dewpoint Depression Visibility Wind Speed Wind Dir Waves Ship Positions

Hrossey

Operator: NorthLink Orkey & Shetland Ferries Ltd

Last reported at 2019-Sep-21 10:28 UTC. Time now 2019-Sep-21 10:59 UTC.
Position N 57°09' W 002°05'.

Length 125 m; draft 5.4 m.

Type: Ship. MMSI: 235448000.

Date/timePositionNaut miles runAvg speedWind from/ knotsBaromVisibWave heightAir tempDewpointWater temp
2019-Sep-21 10:28N 57°09' W 002°05'0 0.0
2019-Sep-21 09:58N 57°09' W 002°05'0 0.0
2019-Sep-21 09:28N 57°09' W 002°05'0 0.0
2019-Sep-21 08:58N 57°09' W 002°05'0 0.0
2019-Sep-21 08:28N 57°09' W 002°05'0 0.0
2019-Sep-21 07:58N 57°09' W 002°05'0 0.0
2019-Sep-21 07:28N 57°09' W 002°05'0 0.0
2019-Sep-21 07:01N 57°09' W 002°05'0 0.0
2019-Sep-21 06:31N 57°09' W 002°05'0 0.0
2019-Sep-21 06:00N 57°09' W 002°05'1 1.1
2019-Sep-21 05:31N 57°09' W 002°04'713.2
2019-Sep-21 05:00N 57°13' W 001°56'5618.1
2019-Sep-21 01:54N 58°10' W 002°04'920.9
2019-Sep-21 01:29N 58°17' W 002°10'1021.2
2019-Sep-21 01:00N 58°27' W 002°16'1020.9
2019-Sep-21 00:30N 58°37' W 002°23'1121.0
2019-Sep-21 00:00N 58°46' W 002°31'1021.0
2019-Sep-20 23:30N 58°56' W 002°38'1020.4
2019-Sep-20 23:00N 59°01' W 002°55'2 3.9
2019-Sep-20 22:30N 58°60' W 002°58'0 0.0
2019-Sep-20 21:51N 58°60' W 002°58'0 0.0
2019-Sep-20 21:30N 58°60' W 002°58'4 9.0
2019-Sep-20 21:00N 59°01' W 002°50'917.7
2019-Sep-20 20:29N 59°01' W 002°32'816.7
2019-Sep-20 20:00N 59°06' W 002°21'1019.6
2019-Sep-20 19:30N 59°13' W 002°06'1021.0
2019-Sep-20 19:00N 59°21' W 001°52'1121.0
2019-Sep-20 18:30N 59°29' W 001°38'1021.0
2019-Sep-20 18:00N 59°38' W 001°29'1121.6
2019-Sep-20 17:30N 59°47' W 001°18'1122.0
2019-Sep-20 16:59N 59°57' W 001°09'1021.2
2019-Sep-20 16:30N 60°08' W 001°08'62 4.1
2019-Sep-20 01:12N 59°14' W 002°11'1112.5
2019-Sep-20 00:20N 59°06' W 002°24'412.9
2019-Sep-20 00:00N 59°02' W 002°30'612.4
2019-Sep-19 23:30N 59°00' W 002°41'816.8
2019-Sep-19 23:00N 59°01' W 002°57'1 1.3
2019-Sep-19 22:13N 58°60' W 002°58'0 0.0
2019-Sep-19 21:58N 58°60' W 002°58'4 7.7
2019-Sep-19 21:30N 59°01' W 002°52'1020.7
2019-Sep-19 21:00N 58°55' W 002°35'6623.8
2019-Sep-19 18:14N 57°53' W 001°52'523.5
2019-Sep-19 18:01N 57°48' W 001°49'1223.0
2019-Sep-19 17:30N 57°37' W 001°41'1121.4
2019-Sep-19 17:01N 57°27' W 001°42'1122.1
2019-Sep-19 16:30N 57°17' W 001°54'1020.8
2019-Sep-19 16:01N 57°09' W 002°04'1 1.7
2019-Sep-19 15:29N 57°09' W 002°05'0 0.0
2019-Sep-19 14:59N 57°09' W 002°05'0 0.0
2019-Sep-19 14:29N 57°09' W 002°05'0 0.0
2019-Sep-19 13:59N 57°09' W 002°05'0 0.0
2019-Sep-19 13:29N 57°09' W 002°05'0 0.0
2019-Sep-19 12:59N 57°09' W 002°05'0 0.0
2019-Sep-19 12:29N 57°09' W 002°05'0 0.0
2019-Sep-19 12:00N 57°09' W 002°05'0 0.0
2019-Sep-19 11:30N 57°09' W 002°05'0 0.0
2019-Sep-19 11:00N 57°09' W 002°05'0 0.0
2019-Sep-19 10:30N 57°09' W 002°05'0 0.0
2019-Sep-19 10:00N 57°09' W 002°05'0 0.0
2019-Sep-19 09:30N 57°09' W 002°05'0 0.0
2019-Sep-19 09:00N 57°09' W 002°05'0 0.0
2019-Sep-19 08:30N 57°09' W 002°05'0 0.0
2019-Sep-19 08:00N 57°09' W 002°05'0 0.0
2019-Sep-19 07:30N 57°09' W 002°05'0 0.0
2019-Sep-19 07:00N 57°09' W 002°05'0 0.0
2019-Sep-19 06:30N 57°09' W 002°05'0 0.0
2019-Sep-19 06:00N 57°09' W 002°05'1 1.2
2019-Sep-19 05:30N 57°09' W 002°04'714.1
2019-Sep-19 05:00N 57°14' W 001°55'816.0
2019-Sep-19 04:30N 57°20' W 001°47'816.4
2019-Sep-19 04:00N 57°27' W 001°40'816.9
2019-Sep-19 03:30N 57°36' W 001°39'1020.1
2019-Sep-19 03:00N 57°46' W 001°44'5621.6
2019-Sep-19 00:24N 58°37' W 002°26'1121.5
2019-Sep-18 23:53N 58°48' W 002°32'921.6
2019-Sep-18 23:27N 58°56' W 002°39'920.0
2019-Sep-18 23:01N 59°01' W 002°54'3 3.6
2019-Sep-18 22:18N 58°60' W 002°58'0 0.0
2019-Sep-18 21:17N 58°60' W 002°58'2 7.9
2019-Sep-18 21:00N 59°01' W 002°55'14 0.7
2019-Sep-18 00:28N 59°04' W 002°28'612.0
2019-Sep-17 23:59N 59°00' W 002°37'714.1
2019-Sep-17 23:30N 59°01' W 002°50'4 3.8
2019-Sep-17 22:21N 58°60' W 002°58'0 0.0
2019-Sep-17 22:00N 58°60' W 002°58'611.1
2019-Sep-17 21:30N 59°00' W 002°48'1019.3
2019-Sep-17 21:00N 58°54' W 002°34'6623.6
2019-Sep-17 18:11N 57°51' W 001°50'423.6
2019-Sep-17 18:01N 57°47' W 001°47'1223.6
2019-Sep-17 17:31N 57°36' W 001°42'1223.2
2019-Sep-17 17:01N 57°24' W 001°44'1223.1
2019-Sep-17 16:30N 57°15' W 001°55'815.9
2019-Sep-17 16:00N 57°09' W 002°05'0 0.8
2019-Sep-17 15:29N 57°09' W 002°05'0 0.0
2019-Sep-17 14:59N 57°09' W 002°05'0 0.0
2019-Sep-17 14:29N 57°09' W 002°05'0 0.0
2019-Sep-17 13:59N 57°09' W 002°05'0 0.0
2019-Sep-17 13:29N 57°09' W 002°05'0 0.0
2019-Sep-17 12:59N 57°09' W 002°05'0 0.0
2019-Sep-17 12:29N 57°09' W 002°05'0 0.0
2019-Sep-17 11:59N 57°09' W 002°05'0 0.0
2019-Sep-17 11:29N 57°09' W 002°05'0 0.0
2019-Sep-17 10:59N 57°09' W 002°05'0 0.0
2019-Sep-17 10:29N 57°09' W 002°05'0 0.0
2019-Sep-17 09:59N 57°09' W 002°05'0 0.0
2019-Sep-17 09:29N 57°09' W 002°05'0 0.0
2019-Sep-17 08:59N 57°09' W 002°05'0 0.0
2019-Sep-17 08:29N 57°09' W 002°05'0 0.0
2019-Sep-17 07:59N 57°09' W 002°05'0 0.0
2019-Sep-17 07:29N 57°09' W 002°05'0 0.0
2019-Sep-17 06:59N 57°09' W 002°05'0 0.0
2019-Sep-17 06:29N 57°09' W 002°05'0 0.0
2019-Sep-17 06:00N 57°09' W 002°05'1 1.5
2019-Sep-17 05:30N 57°09' W 002°04'714.9
2019-Sep-17 05:01N 57°14' W 001°55'816.7
2019-Sep-17 04:31N 57°21' W 001°46'816.5
2019-Sep-17 04:00N 57°28' W 001°37'816.1
2019-Sep-17 03:31N 57°36' W 001°37'918.5
2019-Sep-17 03:00N 57°45' W 001°40'6421.5
2019-Sep-17 00:01N 58°44' W 002°28'221.4
2019-Sep-16 23:55N 58°46' W 002°30'922.1
2019-Sep-16 23:30N 58°54' W 002°36'1020.0
2019-Sep-16 23:00N 59°01' W 002°51'4 4.6
2019-Sep-16 22:13N 58°60' W 002°58'0 0.2
2019-Sep-16 22:00N 58°60' W 002°58'713.3
2019-Sep-16 21:30N 59°01' W 002°45'12 0.6
2019-Sep-16 00:33N 59°07' W 002°25'210.9
2019-Sep-16 00:21N 59°05' W 002°27'410.9
2019-Sep-16 00:00N 59°02' W 002°30'510.9
2019-Sep-15 23:31N 59°00' W 002°40'713.2
2019-Sep-15 23:00N 59°01' W 002°53'3 5.2
2019-Sep-15 22:28N 58°60' W 002°58'0 0.0
2019-Sep-15 21:58N 58°60' W 002°58'3 6.1
2019-Sep-15 21:30N 59°01' W 002°53'1019.4
2019-Sep-15 21:00N 58°56' W 002°36'7023.1
2019-Sep-15 17:58N 57°50' W 001°51'1124.3
2019-Sep-15 17:31N 57°40' W 001°44'1224.5
2019-Sep-15 17:01N 57°28' W 001°42'1224.1
2019-Sep-15 16:31N 57°17' W 001°52'1020.9
2019-Sep-15 16:00N 57°09' W 002°04'1 1.7
2019-Sep-15 15:30N 57°09' W 002°05'0 0.0
2019-Sep-15 15:00N 57°09' W 002°05'0 0.0
2019-Sep-15 14:30N 57°09' W 002°05'0 0.0
2019-Sep-15 14:00N 57°09' W 002°05'0 0.0
2019-Sep-15 13:30N 57°09' W 002°05'0 0.0
2019-Sep-15 13:00N 57°09' W 002°05'0 0.0
2019-Sep-15 12:30N 57°09' W 002°05'0 0.0
2019-Sep-15 12:00N 57°09' W 002°05'0 0.0
2019-Sep-15 11:30N 57°09' W 002°05'0 0.0
2019-Sep-15 11:00N 57°09' W 002°05'0 0.0
2019-Sep-15 10:30N 57°09' W 002°05'0 0.0
2019-Sep-15 10:00N 57°09' W 002°05'0 0.0
2019-Sep-15 09:30N 57°09' W 002°05'0 0.0
2019-Sep-15 09:00N 57°09' W 002°05'0 0.0
2019-Sep-15 08:29N 57°09' W 002°05'0 0.0
2019-Sep-15 07:59N 57°09' W 002°05'0 0.0
2019-Sep-15 07:29N 57°09' W 002°05'0 0.0
2019-Sep-15 06:59N 57°09' W 002°05'0 0.0
2019-Sep-15 06:28N 57°09' W 002°05'0 0.0
2019-Sep-15 06:00N 57°09' W 002°05'1 1.5
2019-Sep-15 05:30N 57°09' W 002°04'714.9
2019-Sep-15 05:00N 57°14' W 001°55'714.1
2019-Sep-15 04:30N 57°19' W 001°46'611.4
2019-Sep-15 04:00N 57°24' W 001°40'611.8
2019-Sep-15 03:30N 57°29' W 001°36'612.5
2019-Sep-15 03:00N 57°36' W 001°36'612.5
2019-Sep-15 02:30N 57°42' W 001°37'713.0
2019-Sep-15 02:00N 57°48' W 001°38'4 0.1
2019-Sep-13 21:34N 57°51' W 001°34'113.0
2019-Sep-13 21:30N 57°51' W 001°34'713.1
2019-Sep-13 21:00N 57°44' W 001°34'713.6
2019-Sep-13 20:31N 57°37' W 001°34'713.8
2019-Sep-13 20:01N 57°30' W 001°35'714.0
2019-Sep-13 19:31N 57°24' W 001°42'714.3
2019-Sep-13 19:00N 57°18' W 001°49'714.3
2019-Sep-13 18:30N 57°13' W 001°57'611.8
2019-Sep-13 18:00N 57°09' W 002°05'1 1.0
2019-Sep-13 17:28N 57°09' W 002°05'0 0.0
2019-Sep-13 16:58N 57°09' W 002°05'0 0.0
2019-Sep-13 16:28N 57°09' W 002°05'0 0.0
2019-Sep-13 15:58N 57°09' W 002°05'0 0.0
2019-Sep-13 15:28N 57°09' W 002°05'0 0.0
2019-Sep-13 14:58N 57°09' W 002°05'0 0.0
2019-Sep-13 14:28N 57°09' W 002°05'0 0.0
2019-Sep-13 13:58N 57°09' W 002°05'0 0.0
2019-Sep-13 13:28N 57°09' W 002°05'0 0.0
2019-Sep-13 12:58N 57°09' W 002°05'0 0.0
2019-Sep-13 12:28N 57°09' W 002°05'0 0.0
2019-Sep-13 11:58N 57°09' W 002°05'0 0.0
2019-Sep-13 11:29N 57°09' W 002°05'0 0.0
2019-Sep-13 10:58N 57°09' W 002°05'0 0.0
2019-Sep-13 10:28N 57°09' W 002°05'0 0.0
2019-Sep-13 09:59N 57°09' W 002°05'0 0.0
2019-Sep-13 09:28N 57°09' W 002°05'0 0.0
2019-Sep-13 08:58N 57°09' W 002°05'0 0.0
2019-Sep-13 08:29N 57°09' W 002°05'0 0.0
2019-Sep-13 07:58N 57°09' W 002°05'0 0.0
2019-Sep-13 07:28N 57°09' W 002°05'0 0.0
2019-Sep-13 06:58N 57°09' W 002°05'0 0.0
2019-Sep-13 06:28N 57°09' W 002°05'0 0.0
2019-Sep-13 06:00N 57°09' W 002°05'1 1.6
2019-Sep-13 05:30N 57°09' W 002°04'613.0
2019-Sep-13 05:00N 57°13' W 001°56'815.5
2019-Sep-13 04:30N 57°20' W 001°47'714.8
2019-Sep-13 04:00N 57°26' W 001°41'611.8
2019-Sep-13 03:30N 57°32' W 001°38'713.3
2019-Sep-13 03:00N 57°39' W 001°39'713.2
2019-Sep-13 02:29N 57°45' W 001°39'5 0.2
2019-Sep-11 21:05N 57°47' W 001°30'212.7
2019-Sep-11 20:58N 57°46' W 001°30'613.3
2019-Sep-11 20:30N 57°40' W 001°33'713.6
2019-Sep-11 20:00N 57°33' W 001°35'713.6
2019-Sep-11 19:30N 57°26' W 001°38'713.9
2019-Sep-11 19:00N 57°21' W 001°46'714.7
2019-Sep-11 18:30N 57°15' W 001°54'816.4
2019-Sep-11 18:01N 57°09' W 002°04'1 1.8
2019-Sep-11 17:30N 57°09' W 002°05'0 0.0
2019-Sep-11 17:00N 57°09' W 002°05'0 0.0
2019-Sep-11 16:30N 57°09' W 002°05'0 0.0
2019-Sep-11 16:00N 57°09' W 002°05'0 0.0
2019-Sep-11 15:30N 57°09' W 002°05'0 0.0
2019-Sep-11 15:00N 57°09' W 002°05'0 0.0
2019-Sep-11 14:30N 57°09' W 002°05'0 0.0
2019-Sep-11 14:00N 57°09' W 002°05'0 0.0
2019-Sep-11 13:30N 57°09' W 002°05'0 0.0
2019-Sep-11 13:00N 57°09' W 002°05'0 0.0
2019-Sep-11 12:30N 57°09' W 002°05'0 0.0
2019-Sep-11 12:00N 57°09' W 002°05'0 0.0
2019-Sep-11 11:30N 57°09' W 002°05'0 0.0
2019-Sep-11 11:00N 57°09' W 002°05'0 0.0
2019-Sep-11 10:30N 57°09' W 002°05'  

Dump ship's entire track history